createdAt,value
2022-08-05T11:15:59.938Z,37.43
2022-08-05T11:16:57.114Z,37.70
2022-08-05T11:17:58.984Z,37.98
2022-08-05T11:18:53.886Z,37.98
2022-08-05T11:20:16.533Z,37.98
2022-08-05T11:20:54.036Z,37.96
2022-08-05T11:21:53.881Z,38.25
2022-08-05T11:22:57.987Z,38.05
2022-08-05T11:24:05.537Z,37.89
2022-08-05T11:25:16.417Z,37.35
2022-08-05T11:26:06.106Z,36.87
2022-08-05T11:26:53.997Z,36.80
2022-08-05T11:28:00.575Z,36.54
2022-08-05T11:28:54.021Z,36.89
2022-08-05T11:29:53.989Z,36.63
2022-08-05T11:30:53.929Z,36.81
2022-08-05T11:32:00.534Z,36.93
2022-08-05T11:32:54.005Z,36.79
2022-08-05T11:33:53.995Z,36.83
2022-08-05T11:34:55.180Z,36.72
2022-08-05T11:36:08.042Z,36.81
2022-08-05T11:36:54.036Z,36.61
2022-08-05T11:38:30.406Z,36.61
2022-08-05T11:38:54.283Z,36.46
2022-08-05T11:40:00.557Z,36.19
2022-08-05T11:40:58.745Z,36.10
2022-08-05T11:42:01.789Z,36.15
2022-08-05T11:42:53.970Z,36.39
2022-08-05T11:44:05.094Z,36.71
2022-08-05T11:44:54.436Z,37.01
2022-08-05T11:46:27.253Z,37.34
2022-08-05T11:47:09.579Z,37.47
2022-08-05T11:47:54.784Z,37.86
2022-08-05T11:48:54.031Z,38.19
2022-08-05T11:49:54.133Z,38.52
2022-08-05T11:50:54.047Z,38.79
2022-08-05T11:51:54.028Z,38.92
2022-08-05T11:52:57.603Z,38.91
2022-08-05T11:53:54.076Z,39.19
2022-08-05T11:54:54.871Z,38.85
2022-08-05T11:55:54.073Z,38.94
2022-08-05T11:56:54.034Z,39.26
2022-08-05T11:58:09.998Z,38.90
2022-08-05T11:58:54.092Z,38.38
2022-08-05T11:59:54.147Z,38.16
2022-08-05T12:00:54.002Z,37.93
2022-08-05T12:01:53.995Z,37.73
2022-08-05T12:02:54.152Z,37.72
2022-08-05T12:03:55.491Z,37.55
2022-08-05T12:04:59.544Z,37.45
2022-08-05T12:05:54.092Z,37.46
2022-08-05T12:06:54.108Z,37.46
2022-08-05T12:08:03.262Z,37.51
2022-08-05T12:08:54.134Z,37.63
2022-08-05T12:09:54.112Z,37.46
2022-08-05T12:10:54.028Z,37.60
2022-08-05T12:11:54.158Z,37.69
2022-08-05T12:12:58.501Z,37.82
2022-08-05T12:13:54.100Z,37.67
2022-08-05T12:14:54.053Z,37.44
2022-08-05T12:15:55.909Z,37.46
2022-08-05T12:16:54.109Z,37.54
2022-08-05T12:18:02.863Z,37.65
2022-08-05T12:18:54.122Z,37.83
2022-08-05T12:20:27.272Z,37.93
2022-08-05T12:20:54.125Z,37.95
2022-08-05T12:21:54.107Z,37.96
2022-08-05T12:22:56.931Z,37.85
2022-08-05T12:23:54.186Z,37.83
2022-08-05T12:24:54.153Z,37.76
2022-08-05T12:25:56.827Z,37.77
2022-08-05T12:26:54.121Z,37.76
2022-08-05T12:27:54.423Z,37.82
2022-08-05T12:28:54.114Z,37.84
2022-08-05T12:29:56.950Z,37.94
2022-08-05T12:30:54.113Z,37.95
2022-08-05T12:31:54.491Z,38.14
2022-08-05T12:32:56.370Z,38.04
2022-08-05T12:33:54.120Z,38.13
2022-08-05T12:34:54.211Z,38.25
2022-08-05T12:35:54.281Z,38.21
2022-08-05T12:36:54.218Z,38.26
2022-08-05T12:37:54.626Z,38.08
2022-08-05T12:38:54.346Z,37.93
2022-08-05T12:39:54.438Z,37.79
2022-08-05T12:40:54.317Z,37.71
2022-08-05T12:41:58.014Z,37.58
2022-08-05T12:42:54.565Z,37.66
2022-08-05T12:43:54.447Z,37.67
2022-08-05T12:44:54.305Z,37.77
2022-08-05T12:45:54.390Z,37.78
2022-08-05T12:46:54.392Z,37.93
2022-08-05T12:48:17.346Z,37.79
2022-08-05T12:48:54.383Z,37.69
2022-08-05T12:50:04.098Z,37.48
2022-08-05T12:50:54.314Z,37.54
2022-08-05T12:52:13.747Z,37.53
2022-08-05T12:52:54.358Z,37.64
2022-08-05T12:53:55.933Z,37.71
2022-08-05T12:54:54.473Z,37.80
2022-08-05T12:55:54.385Z,37.47
2022-08-05T12:56:54.429Z,37.38
2022-08-05T12:58:49.151Z,37.41
2022-08-05T12:59:00.970Z,37.25
2022-08-05T13:01:57.464Z,37.23
2022-08-05T13:02:01.801Z,37.33
2022-08-05T13:02:03.366Z,37.31
2022-08-05T13:02:55.701Z,37.31
2022-08-05T13:03:54.463Z,37.26
2022-08-05T13:04:54.921Z,37.18
2022-08-05T13:05:54.378Z,37.36
2022-08-05T13:06:54.458Z,37.51
2022-08-05T13:07:59.208Z,37.61
2022-08-05T13:08:54.435Z,37.87
2022-08-05T13:09:56.990Z,38.12
2022-08-05T13:10:54.466Z,38.36
2022-08-05T13:12:01.978Z,38.06
2022-08-05T13:12:58.206Z,38.02
2022-08-05T13:14:05.886Z,38.15
2022-08-05T13:15:05.179Z,38.28
2022-08-05T13:15:54.423Z,38.39
2022-08-05T13:16:54.566Z,38.68
2022-08-05T13:17:54.601Z,38.46
2022-08-05T13:18:55.249Z,38.72
2022-08-05T13:19:54.561Z,38.73
2022-08-05T13:20:54.389Z,38.91
2022-08-05T13:21:56.750Z,39.32
2022-08-05T13:22:54.568Z,39.55
2022-08-05T13:23:54.602Z,39.91
2022-08-05T13:24:58.096Z,40.12
2022-08-05T13:25:59.558Z,40.38
2022-08-05T13:26:54.600Z,40.81
2022-08-05T13:27:55.205Z,41.05
2022-08-05T13:28:54.621Z,40.88
2022-08-05T13:30:32.751Z,40.38
2022-08-05T13:30:54.642Z,40.23
2022-08-05T13:32:04.282Z,40.35
2022-08-05T13:32:54.915Z,40.49
2022-08-05T13:34:21.828Z,40.24
2022-08-05T13:34:54.625Z,40.16
2022-08-05T13:35:54.697Z,40.24
2022-08-05T13:36:54.629Z,39.86
2022-08-05T13:37:55.749Z,39.87
2022-08-05T13:38:54.721Z,40.20
2022-08-05T13:40:16.473Z,40.62
2022-08-05T13:40:54.673Z,40.80
2022-08-05T13:41:54.585Z,40.90
2022-08-05T13:42:55.507Z,41.07
2022-08-05T13:43:55.321Z,41.08
2022-08-05T13:44:54.663Z,41.10
2022-08-05T13:45:54.629Z,41.09
2022-08-05T13:47:01.742Z,41.22
2022-08-05T13:48:09.848Z,41.34
2022-08-05T13:48:57.497Z,41.46
2022-08-05T13:49:54.686Z,41.63
2022-08-05T13:50:54.770Z,41.67
2022-08-05T13:51:54.742Z,41.09
2022-08-05T13:52:54.916Z,40.89
2022-08-05T13:53:57.966Z,40.77
2022-08-05T13:54:54.746Z,40.85
2022-08-05T13:55:58.779Z,40.57
2022-08-05T13:56:54.701Z,40.38
2022-08-05T13:57:55.073Z,40.07
2022-08-05T13:58:54.660Z,39.72
2022-08-05T13:59:55.482Z,39.74
2022-08-05T14:00:54.797Z,39.78
2022-08-05T14:01:57.673Z,39.74
2022-08-05T14:02:55.168Z,39.60
2022-08-05T14:03:54.757Z,39.19
2022-08-05T14:04:54.836Z,38.79
2022-08-05T14:06:25.725Z,38.63
2022-08-05T14:07:11.921Z,38.24
2022-08-05T14:07:59.945Z,37.91
2022-08-05T14:08:54.830Z,37.72
2022-08-05T14:09:54.740Z,37.37
2022-08-05T14:10:59.817Z,36.86
2022-08-05T14:12:00.655Z,36.86
2022-08-05T14:12:54.759Z,36.79
2022-08-05T14:13:56.964Z,36.68
2022-08-05T14:14:54.723Z,36.61
2022-08-05T14:16:09.217Z,36.63
2022-08-05T14:16:55.320Z,36.52
2022-08-05T14:17:54.943Z,36.75
2022-08-05T14:18:54.789Z,36.89
2022-08-05T14:19:56.222Z,36.97
2022-08-05T14:20:55.367Z,37.23
2022-08-05T14:22:09.020Z,37.16
2022-08-05T14:22:54.804Z,37.19
2022-08-05T14:23:54.777Z,37.10
2022-08-05T14:24:54.866Z,36.78
2022-08-05T14:25:55.294Z,36.72
2022-08-05T14:27:15.567Z,36.87
2022-08-05T14:27:55.062Z,36.83
2022-08-05T14:28:54.855Z,36.48
2022-08-05T14:29:54.898Z,36.42
2022-08-05T14:30:54.848Z,36.42
2022-08-05T14:32:12.375Z,36.60
2022-08-05T14:32:55.398Z,36.47
2022-08-05T14:33:59.149Z,36.43
2022-08-05T14:34:54.833Z,36.44
2022-08-05T14:35:55.049Z,36.38
2022-08-05T14:36:54.800Z,36.47
2022-08-05T14:37:55.640Z,36.46
2022-08-05T14:38:54.895Z,36.13
2022-08-05T14:39:56.967Z,36.19
2022-08-05T14:40:54.834Z,36.05
2022-08-05T14:42:19.264Z,36.00
2022-08-05T14:42:55.301Z,35.93
2022-08-05T14:44:00.237Z,35.65
2022-08-05T14:44:54.838Z,35.66
2022-08-05T14:45:54.863Z,35.44
2022-08-05T14:46:54.886Z,35.15
2022-08-05T14:48:03.543Z,35.19
2022-08-05T14:48:54.869Z,34.98
2022-08-05T14:49:58.529Z,34.95
2022-08-05T14:50:54.903Z,34.86
2022-08-05T14:51:54.878Z,34.79
2022-08-05T14:52:58.472Z,34.76
2022-08-05T14:54:26.767Z,34.71
2022-08-05T14:54:55.000Z,34.57
2022-08-05T14:55:54.922Z,34.59
2022-08-05T14:56:54.988Z,34.46
2022-08-05T14:57:56.353Z,34.47
2022-08-05T14:58:54.938Z,34.72
2022-08-05T14:59:54.871Z,34.81
2022-08-05T15:00:58.722Z,34.88
2022-08-05T15:01:54.975Z,34.96
2022-08-05T15:02:55.099Z,34.98
2022-08-05T15:03:54.957Z,35.12
2022-08-05T15:04:54.855Z,35.15
2022-08-05T15:06:07.685Z,35.21
2022-08-05T15:06:54.954Z,35.27
2022-08-05T15:08:13.166Z,35.11
2022-08-05T15:09:01.484Z,35.11
2022-08-05T15:09:55.034Z,34.98
2022-08-05T15:10:54.993Z,34.94
2022-08-05T15:11:54.918Z,34.86
2022-08-05T15:13:00.892Z,34.89
2022-08-05T15:13:54.938Z,34.82
2022-08-05T15:14:54.934Z,34.81
2022-08-05T15:15:56.460Z,34.82
2022-08-05T15:16:54.960Z,34.82
2022-08-05T15:17:54.986Z,34.74
2022-08-05T15:18:54.955Z,34.66
2022-08-05T15:19:55.139Z,34.64
2022-08-05T15:20:54.989Z,34.62
2022-08-05T15:22:00.027Z,34.58
2022-08-05T15:22:55.222Z,34.54
2022-08-05T15:23:54.997Z,34.47
2022-08-05T15:24:54.999Z,34.32
2022-08-05T15:25:57.573Z,34.23
2022-08-05T15:26:56.070Z,34.10
2022-08-05T15:27:55.026Z,33.93
2022-08-05T15:28:55.009Z,33.96
2022-08-05T15:29:56.745Z,33.93
2022-08-05T15:30:55.017Z,33.94
2022-08-05T15:31:55.008Z,34.00
2022-08-05T15:32:55.030Z,34.12
2022-08-05T15:34:19.280Z,34.23
2022-08-05T15:34:55.048Z,34.21
2022-08-05T15:35:55.016Z,34.00
2022-08-05T15:36:55.161Z,33.75
2022-08-05T15:38:33.839Z,33.58
2022-08-05T15:40:58.547Z,33.62
2022-08-05T15:41:00.500Z,33.61
2022-08-05T15:41:03.937Z,33.57
2022-08-05T15:41:57.872Z,33.53
2022-08-05T15:42:59.763Z,33.53
2022-08-05T15:43:55.428Z,33.50
2022-08-05T15:44:55.045Z,33.51
2022-08-05T15:46:00.169Z,33.46
2022-08-05T15:46:55.781Z,33.51
2022-08-05T15:47:55.124Z,33.52
2022-08-05T15:49:00.647Z,33.49
2022-08-05T15:49:58.742Z,33.55
2022-08-05T15:50:56.347Z,33.61
2022-08-05T15:52:04.401Z,33.66
2022-08-05T15:53:03.519Z,33.60
2022-08-05T15:53:58.124Z,33.63
2022-08-05T15:54:58.067Z,33.60
2022-08-05T15:56:02.884Z,33.61
2022-08-05T15:56:58.090Z,33.54
2022-08-05T15:57:58.201Z,33.55
2022-08-05T15:58:58.141Z,33.46
2022-08-05T15:59:58.198Z,33.46
2022-08-05T16:01:11.632Z,33.47
2022-08-05T16:01:59.487Z,33.68
2022-08-05T16:02:58.145Z,33.66
2022-08-05T16:03:58.222Z,33.47
2022-08-05T16:04:58.139Z,33.47
2022-08-05T16:05:58.152Z,33.44
2022-08-05T16:06:58.122Z,33.40
2022-08-05T16:07:58.202Z,33.39
2022-08-05T16:08:58.149Z,33.41
2022-08-05T16:09:58.155Z,33.43
2022-08-05T16:10:58.154Z,33.38
2022-08-05T16:11:58.142Z,33.38
2022-08-05T16:12:58.130Z,33.36
2022-08-05T16:13:58.158Z,33.42
2022-08-05T16:14:58.192Z,33.39
2022-08-05T16:15:58.169Z,33.30
2022-08-05T16:16:58.127Z,33.28
2022-08-05T16:17:58.328Z,33.29
2022-08-05T16:18:58.134Z,33.39
2022-08-05T16:20:05.265Z,33.24
2022-08-05T16:20:58.307Z,33.22
2022-08-05T16:21:59.300Z,33.15
2022-08-05T16:22:58.205Z,33.19
2022-08-05T16:24:02.983Z,32.99
2022-08-05T16:24:58.218Z,32.96
2022-08-05T16:25:58.198Z,33.02
2022-08-05T16:26:58.191Z,32.92
2022-08-05T16:28:02.231Z,33.02
2022-08-05T16:28:58.208Z,32.98
2022-08-05T16:29:58.201Z,32.97
2022-08-05T16:30:58.280Z,32.91
2022-08-05T16:31:58.181Z,32.79
2022-08-05T16:32:58.270Z,32.85
2022-08-05T16:33:58.219Z,32.95
2022-08-05T16:34:58.955Z,32.99
2022-08-05T16:35:58.218Z,32.69
2022-08-05T16:36:58.201Z,32.74
2022-08-05T16:38:02.871Z,32.74
2022-08-05T16:38:58.173Z,32.70
2022-08-05T16:40:04.729Z,32.74
2022-08-05T16:41:00.210Z,32.73
2022-08-05T16:42:14.484Z,32.78
2022-08-05T16:42:58.212Z,32.86
2022-08-05T16:43:58.227Z,32.89
2022-08-05T16:44:58.345Z,32.85
2022-08-05T16:46:05.422Z,32.72
2022-08-05T16:46:58.207Z,32.71
2022-08-05T16:48:02.636Z,32.69
2022-08-05T16:48:58.288Z,32.70
2022-08-05T16:49:58.225Z,32.67
2022-08-05T16:50:58.290Z,32.64
2022-08-05T16:51:58.310Z,32.47
2022-08-05T16:52:58.729Z,32.48
2022-08-05T16:54:03.946Z,32.51
2022-08-05T16:54:58.230Z,32.45
2022-08-05T16:55:58.207Z,32.37
2022-08-05T16:56:58.364Z,32.36
2022-08-05T16:58:00.276Z,32.40
2022-08-05T16:58:58.302Z,32.38
2022-08-05T17:00:03.050Z,32.31
2022-08-05T17:00:58.401Z,32.24
2022-08-05T17:01:59.285Z,32.24
2022-08-05T17:02:58.447Z,32.31
2022-08-05T17:03:58.438Z,32.29
2022-08-05T17:04:58.457Z,32.20
2022-08-05T17:05:59.525Z,32.09
2022-08-05T17:07:00.477Z,32.10
2022-08-05T17:07:58.525Z,32.10
2022-08-05T17:08:58.598Z,32.05
2022-08-05T17:09:59.338Z,32.02
2022-08-05T17:10:58.632Z,32.04
2022-08-05T17:11:59.991Z,31.94
2022-08-05T17:12:58.863Z,31.84
2022-08-05T17:14:05.227Z,31.85
2022-08-05T17:14:58.737Z,31.82
2022-08-05T17:16:19.497Z,31.95
2022-08-05T17:16:58.800Z,31.81
2022-08-05T17:17:58.772Z,31.63
2022-08-05T17:18:58.695Z,31.61
2022-08-05T17:19:58.702Z,31.51
2022-08-05T17:20:58.709Z,31.45
2022-08-05T17:21:58.772Z,31.40
2022-08-05T17:22:58.844Z,31.34
2022-08-05T17:24:05.988Z,31.34
2022-08-05T17:25:00.301Z,31.33
2022-08-05T17:25:58.756Z,31.36
2022-08-05T17:26:58.791Z,31.31
2022-08-05T17:27:58.799Z,31.30
2022-08-05T17:28:58.766Z,31.26
2022-08-05T17:30:00.685Z,31.18
2022-08-05T17:30:58.770Z,31.14
2022-08-05T17:31:59.378Z,31.15
2022-08-05T17:32:58.835Z,31.14
2022-08-05T17:33:58.799Z,31.21
2022-08-05T17:34:58.823Z,31.10
2022-08-05T17:36:08.809Z,31.16
2022-08-05T17:36:58.760Z,31.13
2022-08-05T17:38:00.498Z,31.22
2022-08-05T17:38:58.851Z,31.20
2022-08-05T17:40:00.166Z,31.05
2022-08-05T17:40:58.797Z,31.05
2022-08-05T17:42:19.984Z,31.12
2022-08-05T17:42:58.809Z,31.16
2022-08-05T17:43:58.863Z,31.10
2022-08-05T17:44:58.833Z,31.09
2022-08-05T17:45:58.727Z,31.06
2022-08-05T17:46:58.894Z,30.98
2022-08-05T17:47:58.893Z,30.95
2022-08-05T17:48:58.838Z,30.75
2022-08-05T17:50:03.741Z,30.63
2022-08-05T17:50:58.840Z,30.63
2022-08-05T17:51:58.837Z,30.59
2022-08-05T17:52:59.044Z,30.23
2022-08-05T17:53:58.918Z,30.26
2022-08-05T17:54:58.854Z,30.12
2022-08-05T17:55:58.857Z,30.16
2022-08-05T17:56:58.808Z,30.21
